sensor_id;sensor_type;location;lat;lon;timestamp;P1;durP1;ratioP1;P2;durP2;ratioP2
32455;SDS011;18912;43.270;27.942;2022-12-18T00:01:29;7.40;;;2.55;;
32455;SDS011;18912;43.270;27.942;2022-12-18T00:03:58;3.28;;;2.40;;
32455;SDS011;18912;43.270;27.942;2022-12-18T00:06:26;5.28;;;2.75;;
32455;SDS011;18912;43.270;27.942;2022-12-18T00:08:53;4.05;;;2.65;;
32455;SDS011;18912;43.270;27.942;2022-12-18T00:11:21;3.05;;;2.17;;
32455;SDS011;18912;43.270;27.942;2022-12-18T00:13:48;3.97;;;2.40;;
32455;SDS011;18912;43.270;27.942;2022-12-18T00:16:16;4.93;;;2.50;;
32455;SDS011;18912;43.270;27.942;2022-12-18T00:18:45;4.40;;;2.50;;
32455;SDS011;18912;43.270;27.942;2022-12-18T00:21:12;4.38;;;2.67;;
32455;SDS011;18912;43.270;27.942;2022-12-18T00:23:39;4.15;;;2.65;;
32455;SDS011;18912;43.270;27.942;2022-12-18T00:26:07;4.88;;;3.00;;
32455;SDS011;18912;43.270;27.942;2022-12-18T00:28:40;4.97;;;2.92;;
32455;SDS011;18912;43.270;27.942;2022-12-18T00:31:09;3.87;;;2.60;;
32455;SDS011;18912;43.270;27.942;2022-12-18T00:33:36;5.47;;;2.70;;
32455;SDS011;18912;43.270;27.942;2022-12-18T00:36:03;4.20;;;2.67;;
32455;SDS011;18912;43.270;27.942;2022-12-18T00:38:33;8.57;;;2.50;;
32455;SDS011;18912;43.270;27.942;2022-12-18T00:40:59;5.07;;;2.90;;
32455;SDS011;18912;43.270;27.942;2022-12-18T00:43:25;4.47;;;2.30;;
32455;SDS011;18912;43.270;27.942;2022-12-18T00:45:50;4.40;;;2.70;;
32455;SDS011;18912;43.270;27.942;2022-12-18T00:48:16;4.03;;;2.30;;
32455;SDS011;18912;43.270;27.942;2022-12-18T00:50:41;3.90;;;2.43;;
32455;SDS011;18912;43.270;27.942;2022-12-18T00:53:07;2.97;;;1.70;;
32455;SDS011;18912;43.270;27.942;2022-12-18T00:55:36;5.63;;;2.63;;
32455;SDS011;18912;43.270;27.942;2022-12-18T00:58:03;4.07;;;2.67;;
32455;SDS011;18912;43.270;27.942;2022-12-18T01:00:29;5.57;;;2.70;;
32455;SDS011;18912;43.270;27.942;2022-12-18T01:02:55;6.57;;;3.37;;
32455;SDS011;18912;43.270;27.942;2022-12-18T01:05:20;9.40;;;4.27;;
32455;SDS011;18912;43.270;27.942;2022-12-18T01:07:46;6.40;;;4.07;;
32455;SDS011;18912;43.270;27.942;2022-12-18T01:10:12;5.47;;;2.97;;
32455;SDS011;18912;43.270;27.942;2022-12-18T01:15:04;6.18;;;3.38;;
32455;SDS011;18912;43.270;27.942;2022-12-18T01:17:31;3.85;;;2.63;;
32455;SDS011;18912;43.270;27.942;2022-12-18T01:19:56;5.10;;;3.07;;
32455;SDS011;18912;43.270;27.942;2022-12-18T01:22:22;3.87;;;2.47;;
32455;SDS011;18912;43.270;27.942;2022-12-18T01:24:47;4.53;;;2.87;;
32455;SDS011;18912;43.270;27.942;2022-12-18T01:27:13;6.37;;;3.40;;
32455;SDS011;18912;43.270;27.942;2022-12-18T01:29:38;5.17;;;3.17;;
32455;SDS011;18912;43.270;27.942;2022-12-18T01:32:04;4.77;;;3.13;;
32455;SDS011;18912;43.270;27.942;2022-12-18T01:34:29;10.23;;;3.07;;
32455;SDS011;18912;43.270;27.942;2022-12-18T01:36:55;6.43;;;3.17;;
32455;SDS011;18912;43.270;27.942;2022-12-18T01:39:20;4.07;;;2.60;;
32455;SDS011;18912;43.270;27.942;2022-12-18T01:41:46;4.63;;;3.23;;
32455;SDS011;18912;43.270;27.942;2022-12-18T01:50:07;5.45;;;3.15;;
32455;SDS011;18912;43.270;27.942;2022-12-18T01:52:42;5.10;;;3.47;;
32455;SDS011;18912;43.270;27.942;2022-12-18T01:55:10;7.50;;;3.83;;
32455;SDS011;18912;43.270;27.942;2022-12-18T01:57:37;5.93;;;3.60;;
32455;SDS011;18912;43.270;27.942;2022-12-18T02:00:08;5.35;;;3.13;;
32455;SDS011;18912;43.270;27.942;2022-12-18T02:02:37;6.47;;;2.97;;
32455;SDS011;18912;43.270;27.942;2022-12-18T02:05:05;4.97;;;3.08;;
32455;SDS011;18912;43.270;27.942;2022-12-18T02:11:05;6.43;;;3.40;;
32455;SDS011;18912;43.270;27.942;2022-12-18T02:18:45;5.30;;;3.30;;
32455;SDS011;18912;43.270;27.942;2022-12-18T02:21:21;4.72;;;3.17;;
32455;SDS011;18912;43.270;27.942;2022-12-18T02:27:14;4.28;;;2.75;;
32455;SDS011;18912;43.270;27.942;2022-12-18T02:29:42;4.53;;;2.60;;
32455;SDS011;18912;43.270;27.942;2022-12-18T02:32:14;6.40;;;2.83;;
32455;SDS011;18912;43.270;27.942;2022-12-18T02:34:42;4.32;;;2.63;;
32455;SDS011;18912;43.270;27.942;2022-12-18T02:37:10;5.03;;;3.13;;
32455;SDS011;18912;43.270;27.942;2022-12-18T02:39:40;9.45;;;3.22;;
32455;SDS011;18912;43.270;27.942;2022-12-18T02:42:08;4.00;;;2.70;;
32455;SDS011;18912;43.270;27.942;2022-12-18T02:44:35;3.85;;;2.60;;
32455;SDS011;18912;43.270;27.942;2022-12-18T02:47:10;4.15;;;2.42;;
32455;SDS011;18912;43.270;27.942;2022-12-18T02:57:23;4.50;;;2.78;;
32455;SDS011;18912;43.270;27.942;2022-12-18T03:03:05;6.47;;;2.63;;
32455;SDS011;18912;43.270;27.942;2022-12-18T03:05:22;4.78;;;2.85;;
32455;SDS011;18912;43.270;27.942;2022-12-18T03:08:07;4.60;;;3.00;;
32455;SDS011;18912;43.270;27.942;2022-12-18T03:10:38;6.03;;;3.22;;
32455;SDS011;18912;43.270;27.942;2022-12-18T03:13:08;5.40;;;2.55;;
32455;SDS011;18912;43.270;27.942;2022-12-18T03:15:42;4.45;;;2.70;;
32455;SDS011;18912;43.270;27.942;2022-12-18T03:18:13;4.95;;;2.60;;
32455;SDS011;18912;43.270;27.942;2022-12-18T03:20:41;4.57;;;2.92;;
32455;SDS011;18912;43.270;27.942;2022-12-18T03:23:10;3.63;;;2.63;;
32455;SDS011;18912;43.270;27.942;2022-12-18T03:25:42;4.28;;;2.83;;
32455;SDS011;18912;43.270;27.942;2022-12-18T03:28:10;5.47;;;3.03;;
32455;SDS011;18912;43.270;27.942;2022-12-18T03:30:40;4.57;;;2.78;;
32455;SDS011;18912;43.270;27.942;2022-12-18T03:35:46;4.40;;;2.80;;
32455;SDS011;18912;43.270;27.942;2022-12-18T03:38:12;3.85;;;2.50;;
32455;SDS011;18912;43.270;27.942;2022-12-18T03:40:50;4.78;;;2.83;;
32455;SDS011;18912;43.270;27.942;2022-12-18T03:43:18;4.32;;;2.60;;
32455;SDS011;18912;43.270;27.942;2022-12-18T03:45:52;4.53;;;3.20;;
32455;SDS011;18912;43.270;27.942;2022-12-18T03:48:29;6.95;;;3.60;;
32455;SDS011;18912;43.270;27.942;2022-12-18T03:51:15;6.63;;;3.10;;
32455;SDS011;18912;43.270;27.942;2022-12-18T03:53:53;5.95;;;3.53;;
32455;SDS011;18912;43.270;27.942;2022-12-18T03:56:23;6.20;;;3.47;;
32455;SDS011;18912;43.270;27.942;2022-12-18T03:58:53;11.48;;;3.63;;
32455;SDS011;18912;43.270;27.942;2022-12-18T04:01:24;7.20;;;3.90;;
32455;SDS011;18912;43.270;27.942;2022-12-18T04:03:56;10.40;;;3.63;;
32455;SDS011;18912;43.270;27.942;2022-12-18T04:06:24;7.10;;;3.88;;
32455;SDS011;18912;43.270;27.942;2022-12-18T04:08:51;8.35;;;3.70;;
32455;SDS011;18912;43.270;27.942;2022-12-18T04:11:17;10.88;;;4.43;;
32455;SDS011;18912;43.270;27.942;2022-12-18T04:13:42;8.30;;;4.30;;
32455;SDS011;18912;43.270;27.942;2022-12-18T04:16:08;8.20;;;4.77;;
32455;SDS011;18912;43.270;27.942;2022-12-18T04:18:34;7.90;;;4.13;;
32455;SDS011;18912;43.270;27.942;2022-12-18T04:21:00;8.48;;;4.88;;
32455;SDS011;18912;43.270;27.942;2022-12-18T04:23:26;9.10;;;4.33;;
32455;SDS011;18912;43.270;27.942;2022-12-18T04:25:51;8.63;;;4.90;;
32455;SDS011;18912;43.270;27.942;2022-12-18T04:28:17;9.77;;;5.20;;
32455;SDS011;18912;43.270;27.942;2022-12-18T04:30:43;8.03;;;4.87;;
32455;SDS011;18912;43.270;27.942;2022-12-18T04:33:12;7.23;;;4.03;;
32455;SDS011;18912;43.270;27.942;2022-12-18T04:35:43;10.68;;;5.70;;
32455;SDS011;18912;43.270;27.942;2022-12-18T04:40:36;12.02;;;6.07;;
32455;SDS011;18912;43.270;27.942;2022-12-18T04:43:02;14.32;;;6.70;;
32455;SDS011;18912;43.270;27.942;2022-12-18T04:45:28;14.82;;;6.47;;
32455;SDS011;18912;43.270;27.942;2022-12-18T04:47:56;11.07;;;6.45;;
32455;SDS011;18912;43.270;27.942;2022-12-18T04:50:25;15.43;;;6.40;;
32455;SDS011;18912;43.270;27.942;2022-12-18T04:52:50;11.70;;;5.83;;
32455;SDS011;18912;43.270;27.942;2022-12-18T04:55:16;13.90;;;7.07;;
32455;SDS011;18912;43.270;27.942;2022-12-18T04:57:41;8.63;;;4.70;;
32455;SDS011;18912;43.270;27.942;2022-12-18T05:00:07;11.57;;;6.03;;
32455;SDS011;18912;43.270;27.942;2022-12-18T05:02:33;14.07;;;6.40;;
32455;SDS011;18912;43.270;27.942;2022-12-18T05:04:58;7.67;;;4.93;;
32455;SDS011;18912;43.270;27.942;2022-12-18T05:07:24;12.77;;;6.60;;
32455;SDS011;18912;43.270;27.942;2022-12-18T05:09:49;15.87;;;8.07;;
32455;SDS011;18912;43.270;27.942;2022-12-18T05:12:15;10.47;;;5.83;;
32455;SDS011;18912;43.270;27.942;2022-12-18T05:14:40;15.03;;;8.50;;
32455;SDS011;18912;43.270;27.942;2022-12-18T05:17:06;18.50;;;9.33;;
32455;SDS011;18912;43.270;27.942;2022-12-18T05:19:31;19.90;;;9.50;;
32455;SDS011;18912;43.270;27.942;2022-12-18T05:21:57;19.17;;;10.40;;
32455;SDS011;18912;43.270;27.942;2022-12-18T05:24:22;17.90;;;9.80;;
32455;SDS011;18912;43.270;27.942;2022-12-18T05:26:48;21.73;;;10.40;;
32455;SDS011;18912;43.270;27.942;2022-12-18T05:29:13;17.77;;;10.07;;
32455;SDS011;18912;43.270;27.942;2022-12-18T05:31:39;23.37;;;11.07;;
32455;SDS011;18912;43.270;27.942;2022-12-18T05:34:04;24.33;;;11.23;;
32455;SDS011;18912;43.270;27.942;2022-12-18T05:36:30;21.08;;;10.15;;
32455;SDS011;18912;43.270;27.942;2022-12-18T05:38:56;21.97;;;11.40;;
32455;SDS011;18912;43.270;27.942;2022-12-18T05:41:21;25.43;;;10.97;;
32455;SDS011;18912;43.270;27.942;2022-12-18T05:43:47;22.00;;;10.87;;
32455;SDS011;18912;43.270;27.942;2022-12-18T05:46:14;22.70;;;11.83;;
32455;SDS011;18912;43.270;27.942;2022-12-18T05:48:42;27.10;;;11.77;;
32455;SDS011;18912;43.270;27.942;2022-12-18T05:51:09;26.10;;;11.57;;
32455;SDS011;18912;43.270;27.942;2022-12-18T05:53:40;25.73;;;12.27;;
32455;SDS011;18912;43.270;27.942;2022-12-18T05:56:09;25.20;;;11.75;;
32455;SDS011;18912;43.270;27.942;2022-12-18T05:58:37;26.33;;;12.63;;
32455;SDS011;18912;43.270;27.942;2022-12-18T06:01:22;25.48;;;12.02;;
32455;SDS011;18912;43.270;27.942;2022-12-18T06:03:50;27.60;;;13.33;;
32455;SDS011;18912;43.270;27.942;2022-12-18T06:06:19;27.53;;;13.90;;
32455;SDS011;18912;43.270;27.942;2022-12-18T06:08:47;27.20;;;12.93;;
32455;SDS011;18912;43.270;27.942;2022-12-18T06:11:15;48.08;;;20.23;;
32455;SDS011;18912;43.270;27.942;2022-12-18T06:13:42;31.95;;;15.15;;
32455;SDS011;18912;43.270;27.942;2022-12-18T06:16:07;32.37;;;14.73;;
32455;SDS011;18912;43.270;27.942;2022-12-18T06:18:33;32.63;;;15.10;;
32455;SDS011;18912;43.270;27.942;2022-12-18T06:20:59;32.37;;;14.67;;
32455;SDS011;18912;43.270;27.942;2022-12-18T06:23:25;32.60;;;15.50;;
32455;SDS011;18912;43.270;27.942;2022-12-18T06:25:51;32.92;;;15.90;;
32455;SDS011;18912;43.270;27.942;2022-12-18T06:28:17;32.00;;;14.63;;
32455;SDS011;18912;43.270;27.942;2022-12-18T06:30:43;33.83;;;15.73;;
32455;SDS011;18912;43.270;27.942;2022-12-18T06:33:09;31.45;;;15.65;;
32455;SDS011;18912;43.270;27.942;2022-12-18T06:35:34;36.00;;;16.47;;
32455;SDS011;18912;43.270;27.942;2022-12-18T06:38:00;34.43;;;16.57;;
32455;SDS011;18912;43.270;27.942;2022-12-18T06:40:26;32.58;;;15.88;;
32455;SDS011;18912;43.270;27.942;2022-12-18T06:42:52;32.90;;;16.23;;
32455;SDS011;18912;43.270;27.942;2022-12-18T06:45:18;37.50;;;16.73;;
32455;SDS011;18912;43.270;27.942;2022-12-18T06:47:43;38.23;;;17.00;;
32455;SDS011;18912;43.270;27.942;2022-12-18T06:50:09;38.30;;;17.57;;
32455;SDS011;18912;43.270;27.942;2022-12-18T06:52:35;25.90;;;12.05;;
32455;SDS011;18912;43.270;27.942;2022-12-18T06:57:27;36.10;;;16.02;;
32455;SDS011;18912;43.270;27.942;2022-12-18T06:59:52;37.10;;;17.70;;
32455;SDS011;18912;43.270;27.942;2022-12-18T07:02:18;38.37;;;17.57;;
32455;SDS011;18912;43.270;27.942;2022-12-18T07:04:43;39.23;;;19.80;;
32455;SDS011;18912;43.270;27.942;2022-12-18T07:07:09;37.57;;;17.97;;
32455;SDS011;18912;43.270;27.942;2022-12-18T07:09:34;38.73;;;19.13;;
32455;SDS011;18912;43.270;27.942;2022-12-18T07:12:00;39.67;;;18.60;;
32455;SDS011;18912;43.270;27.942;2022-12-18T07:14:25;44.87;;;19.30;;
32455;SDS011;18912;43.270;27.942;2022-12-18T07:16:51;32.20;;;13.67;;
32455;SDS011;18912;43.270;27.942;2022-12-18T07:19:17;40.20;;;18.77;;
32455;SDS011;18912;43.270;27.942;2022-12-18T07:21:42;38.87;;;18.97;;
32455;SDS011;18912;43.270;27.942;2022-12-18T07:24:07;22.20;;;11.40;;
32455;SDS011;18912;43.270;27.942;2022-12-18T07:26:33;39.63;;;18.93;;
32455;SDS011;18912;43.270;27.942;2022-12-18T07:28:58;43.47;;;20.20;;
32455;SDS011;18912;43.270;27.942;2022-12-18T07:31:24;42.53;;;18.83;;
32455;SDS011;18912;43.270;27.942;2022-12-18T07:33:51;41.40;;;18.20;;
32455;SDS011;18912;43.270;27.942;2022-12-18T07:36:17;41.50;;;19.42;;
32455;SDS011;18912;43.270;27.942;2022-12-18T07:38:44;38.22;;;17.58;;
32455;SDS011;18912;43.270;27.942;2022-12-18T07:41:12;44.90;;;19.88;;
32455;SDS011;18912;43.270;27.942;2022-12-18T07:46:04;44.20;;;18.73;;
32455;SDS011;18912;43.270;27.942;2022-12-18T07:48:31;43.72;;;19.48;;
32455;SDS011;18912;43.270;27.942;2022-12-18T07:51:04;41.95;;;19.27;;
32455;SDS011;18912;43.270;27.942;2022-12-18T07:53:31;40.90;;;18.88;;
32455;SDS011;18912;43.270;27.942;2022-12-18T07:55:58;45.13;;;20.73;;
32455;SDS011;18912;43.270;27.942;2022-12-18T07:58:25;42.40;;;19.05;;
32455;SDS011;18912;43.270;27.942;2022-12-18T08:00:51;43.80;;;19.38;;
32455;SDS011;18912;43.270;27.942;2022-12-18T08:03:17;38.53;;;19.43;;
32455;SDS011;18912;43.270;27.942;2022-12-18T08:05:43;43.05;;;19.35;;
32455;SDS011;18912;43.270;27.942;2022-12-18T08:08:09;40.23;;;19.57;;
32455;SDS011;18912;43.270;27.942;2022-12-18T08:10:34;40.83;;;19.67;;
32455;SDS011;18912;43.270;27.942;2022-12-18T08:13:00;43.77;;;19.97;;
32455;SDS011;18912;43.270;27.942;2022-12-18T08:15:25;51.23;;;20.83;;
32455;SDS011;18912;43.270;27.942;2022-12-18T08:17:51;42.03;;;18.53;;
32455;SDS011;18912;43.270;27.942;2022-12-18T08:20:16;41.63;;;19.63;;
32455;SDS011;18912;43.270;27.942;2022-12-18T08:25:08;45.50;;;19.20;;
32455;SDS011;18912;43.270;27.942;2022-12-18T08:27:34;42.97;;;18.70;;
32455;SDS011;18912;43.270;27.942;2022-12-18T08:29:59;45.23;;;20.37;;
32455;SDS011;18912;43.270;27.942;2022-12-18T08:32:25;42.20;;;19.97;;
32455;SDS011;18912;43.270;27.942;2022-12-18T08:34:52;43.67;;;20.13;;
32455;SDS011;18912;43.270;27.942;2022-12-18T08:37:17;45.87;;;19.57;;
32455;SDS011;18912;43.270;27.942;2022-12-18T08:39:43;51.75;;;20.58;;
32455;SDS011;18912;43.270;27.942;2022-12-18T08:42:09;40.77;;;20.03;;
32455;SDS011;18912;43.270;27.942;2022-12-18T08:44:53;42.58;;;19.98;;
32455;SDS011;18912;43.270;27.942;2022-12-18T08:47:19;42.67;;;20.13;;
32455;SDS011;18912;43.270;27.942;2022-12-18T08:49:44;43.83;;;19.90;;
32455;SDS011;18912;43.270;27.942;2022-12-18T08:52:10;39.80;;;18.93;;
32455;SDS011;18912;43.270;27.942;2022-12-18T08:54:36;42.13;;;18.20;;
32455;SDS011;18912;43.270;27.942;2022-12-18T08:57:01;50.20;;;19.63;;
32455;SDS011;18912;43.270;27.942;2022-12-18T08:59:27;47.17;;;21.90;;
32455;SDS011;18912;43.270;27.942;2022-12-18T09:01:53;45.77;;;19.77;;
32455;SDS011;18912;43.270;27.942;2022-12-18T09:04:18;48.42;;;21.02;;
32455;SDS011;18912;43.270;27.942;2022-12-18T09:06:44;47.60;;;20.53;;
32455;SDS011;18912;43.270;27.942;2022-12-18T09:09:10;46.47;;;20.20;;
32455;SDS011;18912;43.270;27.942;2022-12-18T09:11:36;41.55;;;19.40;;
32455;SDS011;18912;43.270;27.942;2022-12-18T09:14:02;40.53;;;19.40;;
32455;SDS011;18912;43.270;27.942;2022-12-18T09:16:28;44.00;;;18.90;;
32455;SDS011;18912;43.270;27.942;2022-12-18T09:18:55;79.38;;;32.90;;
32455;SDS011;18912;43.270;27.942;2022-12-18T09:21:24;40.33;;;18.95;;
32455;SDS011;18912;43.270;27.942;2022-12-18T09:23:51;41.00;;;19.23;;
32455;SDS011;18912;43.270;27.942;2022-12-18T09:26:19;44.33;;;20.50;;
32455;SDS011;18912;43.270;27.942;2022-12-18T09:28:45;46.65;;;20.10;;
32455;SDS011;18912;43.270;27.942;2022-12-18T09:31:11;40.28;;;18.73;;
32455;SDS011;18912;43.270;27.942;2022-12-18T09:33:42;42.78;;;19.77;;
32455;SDS011;18912;43.270;27.942;2022-12-18T09:36:10;48.00;;;21.70;;
32455;SDS011;18912;43.270;27.942;2022-12-18T09:38:37;45.85;;;19.25;;
32455;SDS011;18912;43.270;27.942;2022-12-18T09:41:05;42.85;;;20.27;;
32455;SDS011;18912;43.270;27.942;2022-12-18T09:43:45;39.88;;;19.42;;
32455;SDS011;18912;43.270;27.942;2022-12-18T09:46:19;45.15;;;21.13;;
32455;SDS011;18912;43.270;27.942;2022-12-18T09:48:54;52.95;;;22.20;;
32455;SDS011;18912;43.270;27.942;2022-12-18T09:51:31;42.13;;;20.55;;
32455;SDS011;18912;43.270;27.942;2022-12-18T09:54:22;44.40;;;19.60;;
32455;SDS011;18912;43.270;27.942;2022-12-18T09:56:51;47.63;;;20.00;;
32455;SDS011;18912;43.270;27.942;2022-12-18T09:59:30;51.40;;;21.70;;
32455;SDS011;18912;43.270;27.942;2022-12-18T10:02:08;45.17;;;21.65;;
32455;SDS011;18912;43.270;27.942;2022-12-18T10:04:39;48.60;;;22.48;;
32455;SDS011;18912;43.270;27.942;2022-12-18T10:07:10;50.50;;;22.70;;
32455;SDS011;18912;43.270;27.942;2022-12-18T10:09:52;45.80;;;21.42;;
32455;SDS011;18912;43.270;27.942;2022-12-18T10:12:41;47.42;;;21.98;;
32455;SDS011;18912;43.270;27.942;2022-12-18T10:15:24;48.88;;;21.85;;
32455;SDS011;18912;43.270;27.942;2022-12-18T10:23:21;47.92;;;21.92;;
32455;SDS011;18912;43.270;27.942;2022-12-18T10:28:32;47.38;;;22.17;;
32455;SDS011;18912;43.270;27.942;2022-12-18T10:31:00;53.55;;;22.27;;
32455;SDS011;18912;43.270;27.942;2022-12-18T10:33:29;45.13;;;22.17;;
32455;SDS011;18912;43.270;27.942;2022-12-18T10:35:57;53.05;;;22.80;;
32455;SDS011;18912;43.270;27.942;2022-12-18T10:38:27;49.05;;;22.85;;
32455;SDS011;18912;43.270;27.942;2022-12-18T10:48:33;81.88;;;36.67;;
32455;SDS011;18912;43.270;27.942;2022-12-18T10:53:51;51.88;;;24.85;;
32455;SDS011;18912;43.270;27.942;2022-12-18T10:56:21;50.55;;;23.75;;
32455;SDS011;18912;43.270;27.942;2022-12-18T10:59:00;57.85;;;25.63;;
32455;SDS011;18912;43.270;27.942;2022-12-18T11:01:26;50.10;;;24.17;;
32455;SDS011;18912;43.270;27.942;2022-12-18T11:06:19;53.37;;;23.90;;
32455;SDS011;18912;43.270;27.942;2022-12-18T11:08:58;55.58;;;25.15;;
32455;SDS011;18912;43.270;27.942;2022-12-18T11:11:28;58.67;;;25.45;;
32455;SDS011;18912;43.270;27.942;2022-12-18T11:16:23;57.42;;;25.85;;
32455;SDS011;18912;43.270;27.942;2022-12-18T11:18:48;58.17;;;25.30;;
32455;SDS011;18912;43.270;27.942;2022-12-18T11:21:16;60.47;;;26.67;;
32455;SDS011;18912;43.270;27.942;2022-12-18T11:23:51;61.60;;;26.43;;
32455;SDS011;18912;43.270;27.942;2022-12-18T11:26:19;67.60;;;28.83;;
32455;SDS011;18912;43.270;27.942;2022-12-18T11:29:45;64.72;;;26.95;;
32455;SDS011;18912;43.270;27.942;2022-12-18T11:31:48;59.28;;;27.38;;
32455;SDS011;18912;43.270;27.942;2022-12-18T11:34:16;58.63;;;25.52;;
32455;SDS011;18912;43.270;27.942;2022-12-18T11:36:51;68.10;;;28.65;;
32455;SDS011;18912;43.270;27.942;2022-12-18T11:42:04;58.50;;;25.87;;
32455;SDS011;18912;43.270;27.942;2022-12-18T11:44:44;62.28;;;27.60;;
32455;SDS011;18912;43.270;27.942;2022-12-18T11:49:55;61.10;;;24.90;;
32455;SDS011;18912;43.270;27.942;2022-12-18T11:52:25;52.08;;;24.25;;
32455;SDS011;18912;43.270;27.942;2022-12-18T11:54:59;43.55;;;19.88;;
32455;SDS011;18912;43.270;27.942;2022-12-18T12:07:53;43.35;;;19.20;;
32455;SDS011;18912;43.270;27.942;2022-12-18T12:18:53;27.35;;;14.52;;
32455;SDS011;18912;43.270;27.942;2022-12-18T12:27:00;22.45;;;12.20;;
32455;SDS011;18912;43.270;27.942;2022-12-18T12:34:53;12.98;;;7.45;;
32455;SDS011;18912;43.270;27.942;2022-12-18T12:37:33;20.30;;;6.40;;
32455;SDS011;18912;43.270;27.942;2022-12-18T12:40:10;11.13;;;6.38;;
32455;SDS011;18912;43.270;27.942;2022-12-18T12:42:41;11.57;;;6.40;;
32455;SDS011;18912;43.270;27.942;2022-12-18T12:51:13;18.17;;;7.30;;
32455;SDS011;18912;43.270;27.942;2022-12-18T12:53:42;12.98;;;6.70;;
32455;SDS011;18912;43.270;27.942;2022-12-18T12:56:09;13.25;;;7.20;;
32455;SDS011;18912;43.270;27.942;2022-12-18T12:58:41;12.40;;;7.03;;
32455;SDS011;18912;43.270;27.942;2022-12-18T13:01:25;15.47;;;7.20;;
32455;SDS011;18912;43.270;27.942;2022-12-18T13:04:03;15.45;;;8.13;;
32455;SDS011;18912;43.270;27.942;2022-12-18T13:09:09;13.45;;;7.40;;
32455;SDS011;18912;43.270;27.942;2022-12-18T13:11:39;13.83;;;7.10;;
32455;SDS011;18912;43.270;27.942;2022-12-18T13:14:27;14.13;;;7.70;;
32455;SDS011;18912;43.270;27.942;2022-12-18T13:22:36;16.42;;;8.23;;
32455;SDS011;18912;43.270;27.942;2022-12-18T13:25:26;15.43;;;7.53;;
32455;SDS011;18912;43.270;27.942;2022-12-18T13:28:07;13.95;;;7.30;;
32455;SDS011;18912;43.270;27.942;2022-12-18T13:30:46;16.88;;;7.60;;
32455;SDS011;18912;43.270;27.942;2022-12-18T13:43:41;17.40;;;8.23;;
32455;SDS011;18912;43.270;27.942;2022-12-18T13:48:51;16.08;;;8.30;;
32455;SDS011;18912;43.270;27.942;2022-12-18T13:51:20;14.98;;;7.97;;
32455;SDS011;18912;43.270;27.942;2022-12-18T13:53:57;18.13;;;7.97;;
32455;SDS011;18912;43.270;27.942;2022-12-18T13:56:29;16.95;;;8.80;;
32455;SDS011;18912;43.270;27.942;2022-12-18T13:59:03;16.50;;;7.78;;
32455;SDS011;18912;43.270;27.942;2022-12-18T14:01:40;14.90;;;8.02;;
32455;SDS011;18912;43.270;27.942;2022-12-18T14:04:11;14.57;;;7.22;;
32455;SDS011;18912;43.270;27.942;2022-12-18T14:06:49;15.75;;;8.48;;
32455;SDS011;18912;43.270;27.942;2022-12-18T14:09:20;18.05;;;8.98;;
32455;SDS011;18912;43.270;27.942;2022-12-18T14:11:51;16.98;;;8.15;;
32455;SDS011;18912;43.270;27.942;2022-12-18T14:14:39;14.63;;;7.82;;
32455;SDS011;18912;43.270;27.942;2022-12-18T14:17:09;14.30;;;8.05;;
32455;SDS011;18912;43.270;27.942;2022-12-18T14:19:36;15.80;;;8.38;;
32455;SDS011;18912;43.270;27.942;2022-12-18T14:22:02;18.57;;;9.00;;
32455;SDS011;18912;43.270;27.942;2022-12-18T14:24:28;17.83;;;9.27;;
32455;SDS011;18912;43.270;27.942;2022-12-18T14:29:37;17.08;;;9.27;;
32455;SDS011;18912;43.270;27.942;2022-12-18T14:32:16;15.10;;;8.77;;
32455;SDS011;18912;43.270;27.942;2022-12-18T14:34:44;16.30;;;8.50;;
32455;SDS011;18912;43.270;27.942;2022-12-18T14:37:11;18.85;;;8.70;;
32455;SDS011;18912;43.270;27.942;2022-12-18T14:39:38;15.98;;;8.50;;
32455;SDS011;18912;43.270;27.942;2022-12-18T14:42:03;19.87;;;8.73;;
32455;SDS011;18912;43.270;27.942;2022-12-18T14:44:29;27.10;;;9.53;;
32455;SDS011;18912;43.270;27.942;2022-12-18T14:46:55;21.00;;;10.30;;
32455;SDS011;18912;43.270;27.942;2022-12-18T14:49:23;20.60;;;10.10;;
32455;SDS011;18912;43.270;27.942;2022-12-18T14:51:58;19.20;;;10.05;;
32455;SDS011;18912;43.270;27.942;2022-12-18T14:54:27;21.25;;;9.52;;
32455;SDS011;18912;43.270;27.942;2022-12-18T14:57:28;19.63;;;9.63;;
32455;SDS011;18912;43.270;27.942;2022-12-18T14:59:47;21.30;;;10.20;;
32455;SDS011;18912;43.270;27.942;2022-12-18T15:02:21;19.33;;;9.70;;
32455;SDS011;18912;43.270;27.942;2022-12-18T15:04:59;23.77;;;10.48;;
32455;SDS011;18912;43.270;27.942;2022-12-18T15:07:40;22.67;;;10.68;;
32455;SDS011;18912;43.270;27.942;2022-12-18T15:12:45;21.27;;;10.52;;
32455;SDS011;18912;43.270;27.942;2022-12-18T15:17:58;21.90;;;10.77;;
32455;SDS011;18912;43.270;27.942;2022-12-18T15:20:31;20.95;;;10.57;;
32455;SDS011;18912;43.270;27.942;2022-12-18T15:23:04;25.38;;;12.20;;
32455;SDS011;18912;43.270;27.942;2022-12-18T15:25:34;22.13;;;11.03;;
32455;SDS011;18912;43.270;27.942;2022-12-18T15:28:03;23.48;;;11.38;;
32455;SDS011;18912;43.270;27.942;2022-12-18T15:30:40;22.27;;;9.68;;
32455;SDS011;18912;43.270;27.942;2022-12-18T15:33:24;21.95;;;10.75;;
32455;SDS011;18912;43.270;27.942;2022-12-18T15:35:59;22.67;;;10.57;;
32455;SDS011;18912;43.270;27.942;2022-12-18T15:38:25;24.60;;;10.23;;
32455;SDS011;18912;43.270;27.942;2022-12-18T15:40:52;21.17;;;10.25;;
32455;SDS011;18912;43.270;27.942;2022-12-18T15:43:19;20.15;;;9.43;;
32455;SDS011;18912;43.270;27.942;2022-12-18T15:45:59;16.50;;;9.02;;
32455;SDS011;18912;43.270;27.942;2022-12-18T15:48:33;19.55;;;10.10;;
32455;SDS011;18912;43.270;27.942;2022-12-18T15:51:00;22.45;;;10.98;;
32455;SDS011;18912;43.270;27.942;2022-12-18T15:53:29;20.70;;;10.25;;
32455;SDS011;18912;43.270;27.942;2022-12-18T15:55:57;19.38;;;10.02;;
32455;SDS011;18912;43.270;27.942;2022-12-18T15:58:41;18.58;;;9.52;;
32455;SDS011;18912;43.270;27.942;2022-12-18T16:01:08;19.80;;;10.40;;
32455;SDS011;18912;43.270;27.942;2022-12-18T16:03:34;23.27;;;10.63;;
32455;SDS011;18912;43.270;27.942;2022-12-18T16:06:00;24.73;;;10.73;;
32455;SDS011;18912;43.270;27.942;2022-12-18T16:08:27;20.00;;;9.90;;
32455;SDS011;18912;43.270;27.942;2022-12-18T16:10:54;23.30;;;10.35;;
32455;SDS011;18912;43.270;27.942;2022-12-18T16:13:20;26.67;;;11.65;;
32455;SDS011;18912;43.270;27.942;2022-12-18T16:15:46;23.13;;;10.73;;
32455;SDS011;18912;43.270;27.942;2022-12-18T16:18:11;23.53;;;10.30;;
32455;SDS011;18912;43.270;27.942;2022-12-18T16:20:37;24.73;;;9.70;;
32455;SDS011;18912;43.270;27.942;2022-12-18T16:23:03;20.65;;;10.80;;
32455;SDS011;18912;43.270;27.942;2022-12-18T16:25:29;21.93;;;10.60;;
32455;SDS011;18912;43.270;27.942;2022-12-18T16:27:55;23.42;;;10.15;;
32455;SDS011;18912;43.270;27.942;2022-12-18T16:30:22;23.55;;;11.27;;
32455;SDS011;18912;43.270;27.942;2022-12-18T16:32:52;22.25;;;10.98;;
32455;SDS011;18912;43.270;27.942;2022-12-18T16:35:18;25.83;;;11.45;;
32455;SDS011;18912;43.270;27.942;2022-12-18T16:37:43;23.90;;;10.87;;
32455;SDS011;18912;43.270;27.942;2022-12-18T16:40:10;16.00;;;7.57;;
32455;SDS011;18912;43.270;27.942;2022-12-18T16:42:39;28.80;;;11.40;;
32455;SDS011;18912;43.270;27.942;2022-12-18T16:45:06;24.58;;;11.00;;
32455;SDS011;18912;43.270;27.942;2022-12-18T16:47:33;19.17;;;10.35;;